Time;durP1;ratioP1;P1;durP2;ratioP2;P2;SDS_P1;SDS_P2;PMS_P1;PMS_P2;Temp;Humidity;BMP_temperature;BMP_pressure;BME280_temperature;BME280_humidity;BME280_pressure;Samples;Min_cycle;Max_cycle;Signal;HPM_P1;HPM_P2
2021/05/26 00:00:57;;;;;;;18.87;8.93;;;10.30;93.90;;;;;;5053705;28;20029;-78
2021/05/26 00:03:23;;;;;;;15.30;8.73;;;10.20;93.80;;;;;;5061837;28;20479;-78
2021/05/26 00:05:49;;;;;;;16.67;8.13;;;10.20;93.70;;;;;;5073338;28;20037;-75
2021/05/26 00:08:29;;;;;;;14.27;7.43;;;10.20;93.50;;;;;;5073965;28;20043;-78
2021/05/26 00:10:56;;;;;;;12.47;5.23;;;10.30;93.50;;;;;;5069732;28;20401;-79
2021/05/26 00:13:22;;;;;;;11.97;4.10;;;10.30;92.90;;;;;;5053404;28;20447;-78
2021/05/26 00:15:48;;;;;;;8.87;3.80;;;10.30;92.80;;;;;;5054412;28;20095;-78
2021/05/26 00:18:14;;;;;;;9.50;3.40;;;10.30;92.70;;;;;;5036437;28;20067;-78
2021/05/26 00:20:40;;;;;;;8.63;3.50;;;10.30;92.30;;;;;;5036565;28;20025;-82
2021/05/26 00:23:06;;;;;;;8.77;3.40;;;10.30;92.10;;;;;;5036426;28;20057;-77
2021/05/26 00:25:31;;;;;;;6.47;3.03;;;10.30;92.10;;;;;;5036340;28;20079;-78
2021/05/26 00:27:58;;;;;;;5.20;1.53;;;10.30;92.10;;;;;;5054591;28;20024;-78
2021/05/26 00:30:27;;;;;;;5.30;1.60;;;10.30;92.00;;;;;;5064798;28;20033;-78
2021/05/26 00:32:53;;;;;;;4.10;1.33;;;10.30;91.70;;;;;;5073227;28;20074;-75
2021/05/26 00:35:19;;;;;;;3.63;0.90;;;10.30;91.60;;;;;;5074291;28;20090;-77
2021/05/26 00:37:45;;;;;;;3.23;1.13;;;10.30;91.10;;;;;;5073426;28;20419;-78
2021/05/26 00:40:11;;;;;;;6.97;1.23;;;10.20;91.10;;;;;;5052963;28;20025;-78
2021/05/26 00:42:36;;;;;;;5.17;1.13;;;10.10;91.10;;;;;;5036733;28;20086;-78
2021/05/26 00:45:03;;;;;;;5.20;1.00;;;10.20;91.10;;;;;;5053095;28;20025;-77
2021/05/26 00:47:49;;;;;;;3.63;0.80;;;10.10;91.20;;;;;;5054316;28;20053;-76
2021/05/26 00:50:30;;;;;;;2.60;0.80;;;10.10;91.10;;;;;;5064537;28;20099;-77
2021/05/26 00:53:11;;;;;;;4.27;1.20;;;10.10;91.30;;;;;;5072845;28;20071;-77
2021/05/26 00:55:37;;;;;;;5.27;1.20;;;10.10;91.50;;;;;;5073937;28;20028;-77
2021/05/26 00:58:05;;;;;;;4.53;1.03;;;10.00;91.60;;;;;;5072997;28;20020;-78
2021/05/26 01:00:32;;;;;;;3.17;1.00;;;9.90;91.70;;;;;;5072690;28;20028;-78
2021/05/26 01:02:58;;;;;;;3.50;1.50;;;10.00;91.90;;;;;;5073746;28;20020;-77
2021/05/26 01:05:25;;;;;;;2.20;1.20;;;10.00;91.90;;;;;;5072894;28;20329;-76
2021/05/26 01:07:52;;;;;;;4.40;1.07;;;9.90;92.00;;;;;;5072541;28;20123;-74
2021/05/26 01:10:20;;;;;;;7.27;1.47;;;9.90;92.10;;;;;;5063321;28;20163;-77
2021/05/26 01:12:45;;;;;;;10.83;1.53;;;10.00;92.20;;;;;;5055290;28;20029;-77
2021/05/26 01:15:13;;;;;;;5.17;1.20;;;9.90;92.10;;;;;;5073672;28;20107;-77
2021/05/26 01:17:39;;;;;;;4.60;1.20;;;9.90;92.20;;;;;;5072253;28;20051;-77
2021/05/26 01:20:08;;;;;;;4.80;1.50;;;9.90;92.20;;;;;;5065492;28;20029;-78
2021/05/26 01:22:34;;;;;;;3.53;1.17;;;9.90;92.30;;;;;;5052150;28;20017;-78
2021/05/26 01:25:00;;;;;;;6.27;1.43;;;9.90;92.40;;;;;;5035465;28;20387;-77
2021/05/26 01:27:25;;;;;;;6.10;1.40;;;9.90;92.50;;;;;;5052735;28;20107;-76
2021/05/26 01:29:51;;;;;;;3.37;1.50;;;9.80;92.50;;;;;;5035685;28;20029;-78
2021/05/26 01:32:17;;;;;;;6.00;1.77;;;9.90;92.70;;;;;;5068543;28;20094;-79
2021/05/26 01:34:43;;;;;;;7.57;2.27;;;9.90;92.90;;;;;;5073228;28;20486;-78
2021/05/26 01:37:09;;;;;;;4.87;2.00;;;9.80;93.30;;;;;;5073304;28;20024;-76
2021/05/26 01:39:35;;;;;;;7.07;2.17;;;9.80;93.30;;;;;;5076733;28;20028;-78
2021/05/26 01:42:00;;;;;;;5.83;2.23;;;9.70;93.60;;;;;;5076302;28;20021;-78
2021/05/26 01:44:27;;;;;;;9.63;2.40;;;9.70;94.00;;;;;;5059599;28;20024;-77
2021/05/26 01:46:53;;;;;;;6.90;2.63;;;9.60;94.00;;;;;;5076168;28;20365;-78
2021/05/26 01:49:19;;;;;;;6.77;2.53;;;9.60;94.20;;;;;;5076344;28;20079;-78
2021/05/26 01:51:45;;;;;;;7.37;2.97;;;9.60;94.30;;;;;;5077308;28;20056;-78
2021/05/26 01:54:11;;;;;;;4.33;1.90;;;9.50;94.40;;;;;;5075889;28;20125;-75
2021/05/26 01:56:37;;;;;;;5.10;1.70;;;9.50;94.40;;;;;;5077681;28;20031;-75
2021/05/26 01:59:03;;;;;;;3.57;1.40;;;9.50;94.40;;;;;;5059184;28;20027;-77
2021/05/26 02:01:29;;;;;;;3.83;1.40;;;9.50;94.50;;;;;;5076899;28;20369;-76
2021/05/26 02:03:55;;;;;;;4.67;1.80;;;9.50;94.40;;;;;;5077164;28;20038;-78
2021/05/26 02:06:24;;;;;;;4.37;1.50;;;9.40;94.40;;;;;;5042765;28;20037;-75
2021/05/26 02:08:52;;;;;;;3.83;1.40;;;9.50;94.50;;;;;;5076912;28;20042;-77
2021/05/26 02:14:04;;;;;;;4.82;1.90;;;9.50;94.50;;;;;;5056931;28;20056;-75
2021/05/26 02:16:30;;;;;;;5.40;2.47;;;9.50;94.60;;;;;;5056740;28;20029;-75
2021/05/26 02:18:56;;;;;;;5.17;2.40;;;9.50;94.80;;;;;;5056852;28;20037;-78
2021/05/26 02:21:21;;;;;;;5.23;2.40;;;9.50;94.60;;;;;;5074069;28;20039;-78
2021/05/26 02:23:47;;;;;;;8.90;3.53;;;9.50;94.60;;;;;;5075547;28;20040;-78
2021/05/26 02:26:13;;;;;;;5.83;2.77;;;9.50;94.60;;;;;;5058639;28;20483;-78
2021/05/26 02:28:40;;;;;;;5.80;2.97;;;9.50;94.60;;;;;;5075350;28;20380;-78
2021/05/26 02:31:06;;;;;;;6.93;3.00;;;9.50;94.60;;;;;;5060599;28;20393;-78
2021/05/26 02:33:32;;;;;;;7.47;3.60;;;9.60;94.70;;;;;;5038585;28;20484;-77
2021/05/26 02:35:57;;;;;;;6.30;3.20;;;9.60;94.60;;;;;;5056728;28;20021;-78
2021/05/26 02:38:23;;;;;;;9.70;3.50;;;9.60;94.60;;;;;;5055380;28;20032;-75
2021/05/26 02:40:48;;;;;;;7.63;3.00;;;9.70;94.70;;;;;;5068922;28;20032;-78
2021/05/26 02:43:14;;;;;;;5.30;3.00;;;9.70;94.70;;;;;;5076240;28;20032;-78
2021/05/26 02:45:40;;;;;;;7.57;3.37;;;9.80;94.70;;;;;;5075027;28;20039;-78
2021/05/26 02:48:06;;;;;;;5.63;3.20;;;9.70;94.60;;;;;;5075013;28;20055;-78
2021/05/26 02:50:32;;;;;;;6.30;3.20;;;9.80;94.60;;;;;;5064979;28;20040;-78
2021/05/26 02:52:57;;;;;;;8.37;3.57;;;9.80;94.60;;;;;;5054751;28;20033;-78
2021/05/26 02:55:25;;;;;;;5.27;3.40;;;9.90;94.60;;;;;;5055998;28;20116;-78
2021/05/26 02:57:50;;;;;;;10.57;3.50;;;9.90;94.60;;;;;;5056355;28;20139;-76
2021/05/26 03:00:19;;;;;;;9.07;4.17;;;9.90;94.80;;;;;;5055986;28;20480;-78
2021/05/26 03:02:45;;;;;;;12.03;4.27;;;9.90;94.50;;;;;;5054673;28;20029;-76
2021/05/26 03:05:12;;;;;;;10.30;5.00;;;9.90;94.50;;;;;;5054721;28;20036;-76
2021/05/26 03:07:40;;;;;;;9.17;4.33;;;9.90;94.40;;;;;;5055909;28;20036;-75
2021/05/26 03:10:07;;;;;;;6.77;4.83;;;9.90;94.60;;;;;;5038657;28;20123;-75
2021/05/26 03:12:33;;;;;;;12.83;4.77;;;10.00;94.40;;;;;;5054781;28;20484;-76
2021/05/26 03:14:59;;;;;;;9.17;4.70;;;9.90;94.30;;;;;;5054538;28;20110;-77
2021/05/26 03:17:28;;;;;;;9.57;5.30;;;10.00;94.30;;;;;;5055889;28;20413;-75
2021/05/26 03:19:55;;;;;;;7.77;4.63;;;10.00;94.30;;;;;;5055659;28;20116;-75
2021/05/26 03:22:22;;;;;;;8.00;4.33;;;10.00;94.40;;;;;;5054311;28;20461;-75
2021/05/26 03:24:48;;;;;;;7.70;5.00;;;10.00;94.30;;;;;;5055916;28;20397;-75
2021/05/26 03:27:14;;;;;;;10.27;4.80;;;10.00;94.30;;;;;;5054834;28;20167;-75
2021/05/26 03:29:39;;;;;;;9.43;4.77;;;10.00;94.20;;;;;;5055975;28;20119;-75
2021/05/26 03:32:05;;;;;;;8.93;4.83;;;10.00;94.20;;;;;;5055662;28;20524;-75
2021/05/26 03:34:31;;;;;;;10.20;6.23;;;10.00;94.30;;;;;;5054170;28;20064;-74
2021/05/26 03:36:56;;;;;;;11.97;7.30;;;10.00;94.30;;;;;;5055157;28;20040;-75
2021/05/26 03:39:22;;;;;;;10.53;6.20;;;10.10;94.30;;;;;;5055527;28;20346;-75
2021/05/26 03:41:48;;;;;;;11.57;7.07;;;10.10;94.30;;;;;;5037352;28;20477;-75
2021/05/26 03:44:13;;;;;;;16.57;8.10;;;10.10;94.30;;;;;;5055220;28;20037;-75
2021/05/26 03:46:39;;;;;;;15.93;8.37;;;10.00;94.30;;;;;;5054983;28;20035;-75
2021/05/26 03:49:05;;;;;;;16.30;9.07;;;10.10;94.40;;;;;;5053746;28;20431;-75
2021/05/26 03:51:31;;;;;;;22.80;9.53;;;10.10;94.40;;;;;;5054216;28;20048;-75
2021/05/26 03:53:57;;;;;;;15.43;9.70;;;10.10;94.30;;;;;;5054757;28;20556;-75
2021/05/26 03:56:23;;;;;;;18.50;10.10;;;10.10;94.30;;;;;;5053897;28;20057;-74
2021/05/26 03:58:49;;;;;;;15.37;9.93;;;10.10;94.30;;;;;;5053809;28;20029;-75
2021/05/26 04:01:14;;;;;;;17.30;9.50;;;10.10;94.40;;;;;;5040368;28;20056;-74
2021/05/26 04:03:40;;;;;;;14.23;8.40;;;10.10;94.40;;;;;;5053320;28;20029;-75
2021/05/26 04:06:06;;;;;;;15.30;8.83;;;10.10;94.40;;;;;;5053064;28;20033;-75
2021/05/26 04:08:31;;;;;;;17.53;9.70;;;10.20;94.50;;;;;;5054881;28;20369;-75
2021/05/26 04:10:57;;;;;;;24.00;10.80;;;10.20;94.50;;;;;;5064863;28;20127;-75
2021/05/26 04:13:23;;;;;;;16.10;9.17;;;10.20;94.50;;;;;;5074551;28;20380;-74
2021/05/26 04:15:48;;;;;;;18.53;10.27;;;10.30;94.50;;;;;;5073402;28;20040;-75
2021/05/26 04:18:14;;;;;;;18.70;10.33;;;10.10;94.50;;;;;;5073323;28;20055;-75
2021/05/26 04:20:40;;;;;;;18.33;9.73;;;10.30;94.50;;;;;;5065248;28;20619;-75
2021/05/26 04:23:06;;;;;;;22.50;10.27;;;10.30;94.50;;;;;;5053221;28;20033;-77
2021/05/26 04:25:32;;;;;;;19.17;10.40;;;10.40;94.50;;;;;;5053183;28;20423;-74
2021/05/26 04:27:58;;;;;;;25.27;10.77;;;10.40;94.50;;;;;;5036750;28;20120;-76
2021/05/26 04:30:24;;;;;;;20.67;10.93;;;10.40;94.40;;;;;;5036582;28;20140;-75
2021/05/26 04:32:50;;;;;;;19.93;9.83;;;10.40;94.30;;;;;;5036695;28;20029;-75
2021/05/26 04:35:16;;;;;;;23.60;9.20;;;10.40;94.30;;;;;;5053115;28;20037;-74
2021/05/26 04:37:42;;;;;;;17.60;9.40;;;10.40;94.30;;;;;;5036591;28;20036;-74
2021/05/26 04:40:08;;;;;;;18.37;9.00;;;10.40;94.30;;;;;;5057599;28;20040;-75
2021/05/26 04:42:34;;;;;;;20.20;8.57;;;10.40;94.20;;;;;;5073092;28;20028;-75
2021/05/26 04:45:00;;;;;;;17.27;8.23;;;10.40;94.20;;;;;;5073392;28;20025;-77
2021/05/26 04:47:25;;;;;;;15.77;6.73;;;10.40;94.20;;;;;;5072776;28;20032;-75
2021/05/26 04:49:51;;;;;;;20.93;7.63;;;10.30;94.10;;;;;;5072569;28;20043;-75
2021/05/26 04:52:17;;;;;;;17.37;7.27;;;10.40;94.10;;;;;;5074223;28;20031;-75
2021/05/26 04:54:43;;;;;;;14.97;5.90;;;10.40;94.00;;;;;;5073838;28;20036;-77
2021/05/26 04:57:08;;;;;;;15.83;6.13;;;10.40;94.00;;;;;;5072979;28;20029;-76
2021/05/26 04:59:34;;;;;;;16.87;5.63;;;10.40;93.90;;;;;;5074172;28;20017;-76
2021/05/26 05:02:01;;;;;;;16.97;5.90;;;10.40;93.90;;;;;;5055582;28;20091;-76
2021/05/26 05:04:26;;;;;;;14.10;5.33;;;10.30;93.80;;;;;;5053782;28;20119;-76
2021/05/26 05:06:53;;;;;;;20.80;5.93;;;10.40;93.80;;;;;;5036072;28;20056;-76
2021/05/26 05:09:19;;;;;;;14.83;5.50;;;10.40;93.80;;;;;;5052308;28;20112;-76
2021/05/26 05:11:45;;;;;;;15.93;5.43;;;10.40;93.80;;;;;;5052757;28;20445;-77
2021/05/26 05:14:11;;;;;;;13.27;5.63;;;10.40;93.80;;;;;;5054030;28;20037;-76
2021/05/26 05:16:36;;;;;;;12.47;4.97;;;10.40;93.80;;;;;;5052448;28;20029;-77
2021/05/26 05:19:02;;;;;;;11.53;5.00;;;10.40;93.80;;;;;;5053470;28;20473;-77
2021/05/26 05:21:28;;;;;;;12.57;5.70;;;10.40;93.80;;;;;;5054643;28;20029;-76
2021/05/26 05:23:53;;;;;;;16.00;5.47;;;10.40;93.70;;;;;;5053582;28;20025;-76
2021/05/26 05:26:19;;;;;;;12.57;4.93;;;10.50;94.00;;;;;;5071737;28;20069;-77
2021/05/26 05:28:45;;;;;;;13.40;5.33;;;10.50;93.70;;;;;;5056949;28;20063;-76
2021/05/26 05:31:10;;;;;;;13.87;5.10;;;10.50;93.70;;;;;;5047646;28;20033;-77
2021/05/26 05:33:36;;;;;;;16.00;5.40;;;10.50;93.80;;;;;;5068984;28;20024;-76
2021/05/26 05:36:02;;;;;;;13.93;5.50;;;10.60;93.70;;;;;;5055386;28;20043;-77
2021/05/26 05:38:28;;;;;;;10.90;4.60;;;10.60;93.60;;;;;;5073449;28;20035;-77
2021/05/26 05:40:53;;;;;;;12.70;5.87;;;10.70;93.70;;;;;;5056892;28;20381;-76
2021/05/26 05:43:19;;;;;;;16.10;5.60;;;10.70;93.60;;;;;;5051962;28;20044;-76
2021/05/26 05:45:45;;;;;;;16.87;5.87;;;10.70;93.50;;;;;;5051512;28;20033;-76
2021/05/26 05:48:11;;;;;;;13.10;5.20;;;10.70;93.50;;;;;;5035128;28;20519;-74
2021/05/26 05:50:36;;;;;;;17.97;6.57;;;10.70;93.40;;;;;;5038024;28;20058;-74
2021/05/26 05:53:04;;;;;;;15.10;5.20;;;10.70;93.30;;;;;;5052082;28;20087;-76
2021/05/26 05:55:31;;;;;;;12.57;5.07;;;10.70;93.30;;;;;;5053475;28;20065;-75
2021/05/26 05:58:01;;;;;;;9.10;4.70;;;10.70;93.30;;;;;;5053004;28;20051;-76
2021/05/26 06:00:27;;;;;;;12.17;4.80;;;10.70;93.50;;;;;;5071622;28;20024;-76
2021/05/26 06:02:52;;;;;;;13.47;5.93;;;10.70;93.20;;;;;;5055682;28;20033;-75
2021/05/26 06:05:18;;;;;;;14.07;5.03;;;10.80;93.20;;;;;;5035308;28;20029;-77
2021/05/26 06:07:44;;;;;;;12.93;5.13;;;10.80;93.20;;;;;;5063307;28;20025;-74
2021/05/26 06:10:10;;;;;;;13.20;4.87;;;10.80;93.20;;;;;;5070115;28;20111;-76
2021/05/26 06:12:36;;;;;;;13.53;5.33;;;10.80;93.10;;;;;;5063146;28;20124;-76
2021/05/26 06:15:03;;;;;;;14.50;6.03;;;10.80;93.10;;;;;;5057718;28;20128;-76
2021/05/26 06:17:28;;;;;;;15.90;6.00;;;10.90;93.10;;;;;;5066713;28;20032;-75
2021/05/26 06:19:54;;;;;;;13.33;6.50;;;10.90;92.80;;;;;;5067199;28;20540;-75
2021/05/26 06:22:20;;;;;;;16.73;6.20;;;10.90;92.80;;;;;;5067495;28;20029;-77
2021/05/26 06:24:45;;;;;;;15.97;6.30;;;10.90;92.80;;;;;;5045078;28;20055;-78
2021/05/26 06:27:11;;;;;;;15.97;7.10;;;11.00;92.80;;;;;;5062987;28;20033;-75
2021/05/26 06:29:36;;;;;;;21.13;7.83;;;11.00;92.70;;;;;;5060540;28;20388;-75
2021/05/26 06:32:02;;;;;;;14.63;7.20;;;10.90;92.50;;;;;;5054005;28;20437;-78
2021/05/26 06:34:28;;;;;;;14.30;6.57;;;10.90;92.50;;;;;;5057166;28;20119;-76
2021/05/26 06:36:54;;;;;;;17.57;7.80;;;10.90;92.50;;;;;;5064205;28;20025;-75
2021/05/26 06:39:20;;;;;;;15.43;6.93;;;10.90;92.50;;;;;;5054928;28;20388;-76
2021/05/26 06:41:45;;;;;;;14.60;6.97;;;10.90;92.50;;;;;;5046479;28;20032;-75
2021/05/26 06:44:11;;;;;;;13.63;6.33;;;10.90;92.50;;;;;;5066896;28;20109;-76
2021/05/26 06:46:38;;;;;;;13.87;6.87;;;10.90;92.60;;;;;;5037538;28;20373;-76
2021/05/26 06:49:04;;;;;;;16.10;7.67;;;10.90;92.60;;;;;;5055128;28;20041;-75
2021/05/26 06:51:30;;;;;;;14.73;6.93;;;11.00;92.50;;;;;;5055058;28;20086;-76
2021/05/26 06:53:56;;;;;;;14.03;7.23;;;11.10;92.40;;;;;;5055920;28;20035;-75
2021/05/26 06:56:22;;;;;;;14.80;6.73;;;11.20;92.50;;;;;;5054817;28;20033;-75
2021/05/26 06:58:47;;;;;;;16.10;6.80;;;11.30;92.40;;;;;;5054871;28;20025;-75
2021/05/26 07:01:13;;;;;;;16.53;8.37;;;11.30;92.20;;;;;;5038300;28;20346;-76
2021/05/26 07:03:39;;;;;;;17.03;7.23;;;11.40;91.90;;;;;;5054959;28;20017;-77
2021/05/26 07:06:04;;;;;;;15.90;8.00;;;11.40;91.90;;;;;;5054304;28;20021;-76
2021/05/26 07:08:31;;;;;;;14.03;7.23;;;11.50;91.80;;;;;;5037541;28;20380;-74
2021/05/26 07:10:57;;;;;;;15.10;7.27;;;11.50;91.90;;;;;;5057968;28;20063;-74
2021/05/26 07:13:22;;;;;;;15.27;7.53;;;11.50;91.50;;;;;;5062180;28;20064;-75
2021/05/26 07:15:48;;;;;;;15.23;7.63;;;11.60;91.30;;;;;;5050986;28;20025;-75
2021/05/26 07:18:13;;;;;;;12.65;6.95;;;11.60;91.30;;;;;;5061468;28;20377;-74
2021/05/26 07:20:43;;;;;;;14.10;7.33;;;11.70;91.40;;;;;;5062373;28;20028;-76
2021/05/26 07:23:09;;;;;;;13.70;6.75;;;11.70;91.30;;;;;;5055479;28;20116;-77
2021/05/26 07:25:35;;;;;;;14.52;7.07;;;11.70;91.20;;;;;;5065709;28;20051;-75
2021/05/26 07:28:01;;;;;;;11.23;6.13;;;11.80;91.30;;;;;;5060107;28;20045;-74
2021/05/26 07:30:27;;;;;;;11.15;6.63;;;11.90;91.30;;;;;;5064525;28;20568;-75
2021/05/26 07:32:53;;;;;;;9.40;5.78;;;11.90;91.10;;;;;;5074851;28;20032;-76
2021/05/26 07:35:18;;;;;;;13.63;6.45;;;12.00;91.20;;;;;;5063564;28;20045;-76
2021/05/26 07:37:44;;;;;;;10.68;6.35;;;12.10;91.40;;;;;;5048951;28;20515;-75
2021/05/26 07:40:11;;;;;;;13.38;6.68;;;12.20;91.20;;;;;;5048721;28;20029;-76
2021/05/26 07:42:37;;;;;;;12.80;6.28;;;12.20;91.10;;;;;;5065319;28;20017;-74
2021/05/26 07:45:04;;;;;;;11.93;6.43;;;12.30;91.10;;;;;;5055522;28;20117;-76
2021/05/26 07:47:30;;;;;;;20.27;7.05;;;12.40;90.90;;;;;;5053470;28;20029;-79
2021/05/26 07:49:55;;;;;;;16.25;6.97;;;12.50;90.70;;;;;;5054759;28;20357;-73
2021/05/26 07:52:21;;;;;;;20.13;7.55;;;12.50;90.30;;;;;;5054798;28;20032;-74
2021/05/26 07:54:48;;;;;;;14.25;7.43;;;12.50;90.30;;;;;;5052717;28;20024;-74
2021/05/26 07:57:14;;;;;;;11.05;6.43;;;12.60;90.40;;;;;;5054559;28;20091;-74
2021/05/26 07:59:40;;;;;;;11.27;6.65;;;12.70;90.40;;;;;;5053318;28;20025;-75
2021/05/26 08:02:06;;;;;;;14.80;6.40;;;12.80;90.30;;;;;;5054398;28;20100;-75
2021/05/26 08:04:31;;;;;;;14.95;7.07;;;12.80;90.40;;;;;;5053132;28;20053;-75
2021/05/26 08:06:57;;;;;;;13.65;6.93;;;12.90;89.40;;;;;;5053139;28;20526;-75
2021/05/26 08:09:23;;;;;;;11.95;6.25;;;12.90;89.10;;;;;;5051800;28;20124;-75
2021/05/26 08:11:48;;;;;;;14.45;6.65;;;12.80;89.00;;;;;;5073854;28;20107;-75
2021/05/26 08:14:14;;;;;;;9.30;5.75;;;13.00;88.70;;;;;;5073246;28;20032;-75
2021/05/26 08:16:40;;;;;;;9.95;6.13;;;13.10;89.60;;;;;;5072889;28;20103;-74
2021/05/26 08:19:07;;;;;;;13.38;6.25;;;13.10;88.30;;;;;;5060734;28;20044;-75
2021/05/26 08:21:32;;;;;;;12.50;6.85;;;13.20;88.10;;;;;;5036819;28;20033;-75
2021/05/26 08:23:58;;;;;;;11.40;6.63;;;13.20;87.80;;;;;;5055590;28;20027;-74
2021/05/26 08:26:24;;;;;;;14.23;7.65;;;13.30;87.10;;;;;;5063398;28;20029;-74
2021/05/26 08:28:52;;;;;;;11.75;6.43;;;13.30;87.10;;;;;;5058711;28;20025;-75
2021/05/26 08:31:18;;;;;;;12.30;5.80;;;13.30;86.50;;;;;;5039882;28;20029;-75
2021/05/26 08:33:44;;;;;;;12.38;6.03;;;13.40;86.90;;;;;;5064906;28;20020;-77
2021/05/26 08:36:10;;;;;;;15.35;7.50;;;13.40;86.30;;;;;;5052028;28;20435;-75
2021/05/26 08:38:37;;;;;;;12.50;6.50;;;13.50;85.40;;;;;;5060522;28;20032;-76
2021/05/26 08:41:04;;;;;;;9.38;5.97;;;13.50;85.20;;;;;;5057748;28;20035;-75
2021/05/26 08:43:30;;;;;;;12.35;6.90;;;13.50;85.60;;;;;;5050368;28;20043;-76
2021/05/26 08:45:56;;;;;;;13.27;7.10;;;13.50;85.10;;;;;;5061665;28;20025;-77
2021/05/26 08:48:24;;;;;;;13.73;7.10;;;13.50;84.90;;;;;;5060575;28;20041;-75
2021/05/26 08:50:50;;;;;;;13.35;7.18;;;13.60;84.80;;;;;;5073674;28;20082;-75
2021/05/26 08:53:16;;;;;;;11.68;6.18;;;13.60;84.50;;;;;;5038844;28;20032;-76
2021/05/26 08:55:42;;;;;;;14.52;7.45;;;13.60;84.60;;;;;;5039046;28;20464;-76
2021/05/26 08:58:08;;;;;;;10.70;6.85;;;13.70;83.80;;;;;;5067758;28;20036;-76
2021/05/26 09:00:33;;;;;;;11.43;6.90;;;13.70;83.60;;;;;;5055804;28;20119;-74
2021/05/26 09:02:59;;;;;;;11.52;6.72;;;13.80;83.40;;;;;;5071841;28;20027;-77
2021/05/26 09:05:31;;;;;;;11.63;6.05;;;13.80;82.60;;;;;;5038885;28;20032;-75
2021/05/26 09:07:57;;;;;;;12.38;7.60;;;13.80;82.70;;;;;;5071978;28;20468;-75
2021/05/26 09:10:23;;;;;;;12.02;6.97;;;13.80;82.30;;;;;;5066663;28;20025;-75
2021/05/26 09:12:51;;;;;;;9.98;6.20;;;13.90;82.90;;;;;;5054740;28;20466;-76
2021/05/26 09:15:20;;;;;;;11.55;6.40;;;14.00;83.00;;;;;;5053027;28;20057;-77
2021/05/26 09:17:56;;;;;;;12.05;6.60;;;14.10;82.40;;;;;;5067463;28;20076;-77
2021/05/26 09:20:27;;;;;;;11.70;6.30;;;14.10;81.50;;;;;;5035139;28;20029;-74
2021/05/26 09:23:06;;;;;;;12.20;6.38;;;14.20;82.00;;;;;;5053124;28;20033;-77
2021/05/26 09:25:35;;;;;;;11.07;5.45;;;14.40;81.00;;;;;;5052288;28;20358;-76
2021/05/26 09:28:27;;;;;;;13.15;6.88;;;14.40;79.90;;;;;;5056528;28;20024;-77
2021/05/26 09:31:04;;;;;;;15.60;6.60;;;14.40;79.20;;;;;;5060531;28;20431;-76
2021/05/26 09:33:39;;;;;;;11.35;6.07;;;14.40;79.60;;;;;;5052270;28;20543;-73
2021/05/26 09:36:13;;;;;;;9.48;6.18;;;14.40;78.80;;;;;;5051859;28;20060;-75
2021/05/26 09:38:46;;;;;;;11.60;6.13;;;14.40;78.30;;;;;;5059105;28;20013;-77
2021/05/26 09:41:16;;;;;;;11.48;5.65;;;14.50;78.90;;;;;;5059990;28;20028;-75
2021/05/26 09:43:47;;;;;;;11.35;5.63;;;14.60;79.00;;;;;;5072036;28;20437;-77
2021/05/26 09:46:37;;;;;;;9.88;5.25;;;14.70;78.50;;;;;;5060829;28;20029;-74
2021/05/26 09:49:23;;;;;;;8.07;3.80;;;14.80;77.00;;;;;;5058072;28;20037;-77
2021/05/26 09:51:50;;;;;;;8.23;3.65;;;14.80;76.10;;;;;;5055359;28;20028;-74
2021/05/26 09:54:17;;;;;;;7.93;3.58;;;15.00;75.20;;;;;;5072100;28;20033;-75
2021/05/26 09:56:46;;;;;;;10.60;4.45;;;15.00;75.20;;;;;;5073185;28;20021;-74
2021/05/26 09:59:12;;;;;;;7.35;3.00;;;15.00;72.80;;;;;;5064039;28;20021;-77
2021/05/26 10:01:39;;;;;;;9.75;3.97;;;15.10;73.40;;;;;;5051916;28;20036;-75
2021/05/26 10:04:05;;;;;;;7.90;3.70;;;15.20;73.90;;;;;;5076052;28;20020;-75
2021/05/26 10:06:32;;;;;;;8.75;3.30;;;15.30;73.60;;;;;;5058903;28;20020;-75
2021/05/26 10:08:58;;;;;;;9.93;3.50;;;15.40;74.10;;;;;;5067846;28;20515;-76
2021/05/26 10:11:32;;;;;;;7.32;3.67;;;15.50;73.30;;;;;;5044220;28;20029;-76
2021/05/26 10:14:11;;;;;;;9.07;4.28;;;15.70;73.40;;;;;;5076833;28;20114;-76
2021/05/26 10:16:42;;;;;;;7.22;4.03;;;15.80;72.80;;;;;;5075390;28;20012;-77
2021/05/26 10:19:12;;;;;;;11.68;4.18;;;15.80;70.70;;;;;;5064327;28;20495;-77
2021/05/26 10:21:39;;;;;;;9.98;4.95;;;15.80;71.30;;;;;;5038867;28;20092;-76
2021/05/26 10:24:06;;;;;;;11.30;4.63;;;15.90;70.50;;;;;;5073968;28;20028;-79
2021/05/26 10:26:47;;;;;;;7.07;4.22;;;15.90;70.60;;;;;;5075392;28;20028;-76
2021/05/26 10:29:28;;;;;;;4.82;1.40;;;16.00;69.80;;;;;;5074655;28;20062;-76
2021/05/26 10:31:54;;;;;;;4.15;0.70;;;15.70;67.30;;;;;;5072597;28;20028;-74
2021/05/26 10:34:20;;;;;;;3.95;0.65;;;15.30;68.40;;;;;;5048637;28;20397;-76
2021/05/26 10:36:53;;;;;;;4.15;0.60;;;14.80;70.00;;;;;;5067247;28;20025;-78
2021/05/26 10:39:31;;;;;;;3.10;0.63;;;14.40;72.10;;;;;;5052737;28;20021;-77
2021/05/26 10:41:57;;;;;;;4.40;0.88;;;14.00;73.90;;;;;;5062306;28;20082;-75
2021/05/26 10:44:54;;;;;;;4.43;0.88;;;13.60;76.20;;;;;;5076253;28;20033;-77
2021/05/26 10:47:38;;;;;;;4.10;0.90;;;13.10;78.00;;;;;;5076383;28;20036;-75
2021/05/26 10:50:15;;;;;;;4.05;0.85;;;12.80;79.60;;;;;;5056130;28;20036;-76
2021/05/26 10:52:56;;;;;;;4.32;1.00;;;12.60;79.80;;;;;;5056121;28;20071;-75
2021/05/26 10:55:33;;;;;;;4.53;1.10;;;12.50;80.60;;;;;;5056649;28;20029;-76
2021/05/26 10:58:34;;;;;;;3.70;1.17;;;12.30;81.30;;;;;;5056268;28;20482;-77
2021/05/26 11:01:03;;;;;;;5.93;1.57;;;12.20;83.70;;;;;;5063444;28;20032;-75
2021/05/26 11:03:43;;;;;;;3.53;1.27;;;11.90;85.10;;;;;;5075052;28;20520;-76
2021/05/26 11:06:15;;;;;;;5.33;1.17;;;11.80;85.60;;;;;;5074849;28;20042;-77
2021/05/26 11:08:46;;;;;;;3.63;1.10;;;11.70;86.30;;;;;;5054884;28;20384;-77
2021/05/26 11:11:21;;;;;;;2.97;0.90;;;11.70;86.50;;;;;;5054076;28;20098;-76
2021/05/26 11:19:20;;;;;;;1.35;0.80;;;12.30;87.60;;;;;;5055272;28;20128;-77
2021/05/26 11:22:01;;;;;;;4.10;0.70;;;12.80;88.40;;;;;;5054469;28;20056;-74
2021/05/26 11:24:33;;;;;;;1.60;0.60;;;13.40;88.20;;;;;;5054401;28;20025;-76
2021/05/26 11:27:12;;;;;;;2.17;0.70;;;13.90;86.00;;;;;;5059799;28;20396;-77
2021/05/26 11:29:38;;;;;;;2.90;0.70;;;14.50;83.80;;;;;;5075331;28;20423;-76
2021/05/26 11:32:16;;;;;;;2.55;0.80;;;14.70;79.50;;;;;;5041019;28;20028;-75
2021/05/26 11:34:44;;;;;;;4.45;1.20;;;15.00;79.10;;;;;;5074510;28;20416;-77
2021/05/26 11:37:11;;;;;;;2.35;0.75;;;15.20;77.60;;;;;;5071954;28;20024;-77
2021/05/26 11:39:37;;;;;;;6.82;0.90;;;15.50;76.90;;;;;;5050921;28;20024;-79
2021/05/26 11:42:17;;;;;;;2.22;0.70;;;15.60;73.50;;;;;;5067648;28;20055;-78
2021/05/26 11:44:44;;;;;;;3.25;0.60;;;15.40;73.20;;;;;;5083773;28;20021;-79
2021/05/26 11:47:11;;;;;;;5.28;0.60;;;15.20;73.40;;;;;;5070518;28;20048;-78
2021/05/26 11:49:40;;;;;;;5.97;1.00;;;15.00;74.10;;;;;;5055385;28;20039;-81
2021/05/26 11:52:10;;;;;;;7.10;1.30;;;14.60;74.80;;;;;;5057994;28;20056;-80
2021/05/26 11:54:56;;;;;;;5.15;0.98;;;14.30;76.30;;;;;;5074096;28;20074;-77
2021/05/26 11:57:35;;;;;;;3.67;1.13;;;14.10;77.80;;;;;;5073839;28;20029;-79
2021/05/26 12:00:04;;;;;;;5.10;1.45;;;13.90;78.40;;;;;;5074915;28;20020;-79
2021/05/26 12:02:30;;;;;;;3.95;1.60;;;13.70;78.90;;;;;;5073655;28;20020;-78
2021/05/26 12:04:56;;;;;;;4.93;1.60;;;13.60;79.90;;;;;;5056810;28;20115;-78
2021/05/26 12:07:26;;;;;;;4.78;1.65;;;13.60;80.50;;;;;;5070318;28;20056;-79
2021/05/26 12:10:00;;;;;;;3.03;1.60;;;13.60;81.00;;;;;;5053583;28;20040;-79
2021/05/26 12:12:27;;;;;;;3.20;1.48;;;13.70;81.80;;;;;;5060480;28;20021;-80
2021/05/26 12:14:53;;;;;;;2.88;1.40;;;14.10;82.80;;;;;;5070813;28;20025;-80
2021/05/26 12:17:20;;;;;;;5.90;1.20;;;14.70;84.20;;;;;;5074922;28;20024;-81
2021/05/26 12:19:47;;;;;;;6.75;1.40;;;15.60;84.90;;;;;;5073125;28;20044;-83
2021/05/26 12:22:19;;;;;;;5.50;1.00;;;16.50;83.80;;;;;;5065406;28;20013;-80
2021/05/26 12:25:00;;;;;;;2.85;0.70;;;17.20;76.80;;;;;;5067721;28;20019;-80
2021/05/26 12:27:36;;;;;;;3.08;0.80;;;17.60;70.20;;;;;;5073149;28;20035;-79
2021/05/26 12:30:20;;;;;;;2.67;0.65;;;18.00;67.70;;;;;;5073948;28;20025;-77
2021/05/26 12:32:51;;;;;;;3.60;0.50;;;18.50;66.00;;;;;;5073305;28;20130;-78
2021/05/26 12:35:19;;;;;;;2.78;0.60;;;18.70;63.30;;;;;;5060959;28;20037;-80
2021/05/26 12:37:48;;;;;;;0.95;0.40;;;18.40;59.90;;;;;;5052779;28;20025;-77
2021/05/26 12:40:30;;;;;;;2.58;0.50;;;17.90;59.40;;;;;;5071206;28;20016;-82
2021/05/26 12:42:59;;;;;;;1.95;0.70;;;17.40;61.20;;;;;;5072750;28;20493;-84
2021/05/26 12:45:27;;;;;;;3.17;0.60;;;17.00;62.40;;;;;;5071759;28;20238;-76
2021/05/26 12:47:54;;;;;;;3.17;0.60;;;17.00;63.20;;;;;;5053962;28;20380;-80
2021/05/26 12:50:24;;;;;;;1.02;0.47;;;17.10;63.10;;;;;;5054088;28;20033;-86
2021/05/26 12:52:53;;;;;;;2.33;0.60;;;17.70;64.20;;;;;;5062518;28;20021;-80
2021/05/26 12:55:23;;;;;;;1.58;0.50;;;18.30;61.30;;;;;;5053704;28;20473;-78